Time;durP1;ratioP1;P1;durP2;ratioP2;P2;SDS_P1;SDS_P2;PMS_P1;PMS_P2;Temp;Humidity;BMP_temperature;BMP_pressure;BME280_temperature;BME280_humidity;BME280_pressure;Samples;Min_cycle;Max_cycle;Signal;HPM_P1;HPM_P2
2022/09/06 00:00:34;;;;;;;31.20;8.00;;;;;;;17.98;78.43;96500.63;5051757;28;20652;-76
2022/09/06 00:03:01;;;;;;;27.42;7.05;;;;;;;17.96;78.38;96505.72;5051793;28;20041;-75
2022/09/06 00:05:27;;;;;;;19.80;6.55;;;;;;;17.92;78.67;96504.03;5051426;28;20044;-75
2022/09/06 00:07:54;;;;;;;24.80;7.32;;;;;;;17.88;78.57;96503.97;5051783;28;20052;-75
2022/09/06 00:10:21;;;;;;;25.85;6.78;;;;;;;17.85;79.09;96499.16;5051177;28;20037;-76
2022/09/06 00:12:49;;;;;;;23.73;7.03;;;;;;;17.82;79.23;96502.66;5051327;28;20499;-75
2022/09/06 00:15:15;;;;;;;32.78;8.10;;;;;;;17.78;79.88;96493.50;5037508;28;20050;-75
2022/09/06 00:17:43;;;;;;;30.60;7.75;;;;;;;17.77;79.43;96497.44;5032063;28;20061;-75
2022/09/06 00:20:10;;;;;;;25.33;7.57;;;;;;;17.73;79.17;96496.53;5031059;28;20049;-75
2022/09/06 00:22:37;;;;;;;62.45;10.93;;;;;;;17.69;79.18;96495.63;5031116;28;20049;-75
2022/09/06 00:25:05;;;;;;;21.42;7.25;;;;;;;17.63;79.49;96497.88;5031202;28;20049;-75
2022/09/06 00:27:31;;;;;;;35.35;8.07;;;;;;;17.61;79.93;96499.41;5050323;28;20130;-75
2022/09/06 00:29:59;;;;;;;29.15;8.00;;;;;;;17.56;80.32;96511.50;5051166;28;20060;-75
2022/09/06 00:32:26;;;;;;;29.15;7.65;;;;;;;17.57;80.71;96509.53;5050858;28;20067;-75
2022/09/06 00:34:53;;;;;;;30.45;7.95;;;;;;;17.53;80.76;96503.94;5051059;28;20037;-75
2022/09/06 00:37:19;;;;;;;32.67;8.70;;;;;;;17.50;81.03;96499.16;5050427;28;20522;-75
2022/09/06 00:39:46;;;;;;;23.63;7.50;;;;;;;17.48;81.13;96507.78;5051172;28;20068;-74
2022/09/06 00:42:13;;;;;;;30.50;8.73;;;;;;;17.46;81.08;96510.09;5050632;28;20439;-75
2022/09/06 00:44:40;;;;;;;26.85;7.75;;;;;;;17.44;81.15;96506.91;5050891;28;20049;-75
2022/09/06 00:47:08;;;;;;;24.17;8.63;;;;;;;17.38;81.71;96502.84;5050532;28;20165;-75
2022/09/06 00:49:39;;;;;;;27.02;9.20;;;;;;;17.34;82.40;96504.72;5050866;28;20491;-75
2022/09/06 00:52:10;;;;;;;21.10;8.32;;;;;;;17.37;82.70;96506.72;5050322;28;20041;-75
2022/09/06 00:54:39;;;;;;;24.95;8.88;;;;;;;17.37;82.56;96505.94;5042112;28;20049;-75
2022/09/06 00:57:05;;;;;;;28.02;8.85;;;;;;;17.41;82.97;96507.63;5045763;28;20049;-75
2022/09/06 00:59:36;;;;;;;28.13;8.98;;;;;;;17.43;82.64;96510.81;5050585;28;20044;-75
2022/09/06 01:02:04;;;;;;;33.88;10.32;;;;;;;17.41;82.69;96510.38;5050173;28;20041;-76
2022/09/06 01:04:33;;;;;;;19.65;8.85;;;;;;;17.35;82.25;96511.81;5050504;28;20041;-76
2022/09/06 01:07:05;;;;;;;31.55;9.65;;;;;;;17.31;82.65;96515.63;5050635;28;20060;-76
2022/09/06 01:09:50;;;;;;;29.83;9.40;;;;;;;17.34;82.89;96510.22;5050311;28;20052;-78
2022/09/06 01:12:33;;;;;;;23.20;9.32;;;;;;;17.28;82.50;96513.59;5049833;28;20048;-77
2022/09/06 01:15:09;;;;;;;25.33;9.88;;;;;;;17.23;82.97;96517.44;5050399;28;20049;-76
2022/09/06 01:17:48;;;;;;;29.38;9.65;;;;;;;17.22;83.01;96515.81;5050313;28;20498;-77
2022/09/06 01:20:29;;;;;;;20.65;8.70;;;;;;;17.20;83.12;96512.63;5050016;28;20045;-76
2022/09/06 01:23:14;;;;;;;23.95;8.80;;;;;;;17.15;83.22;96507.41;5049833;28;20041;-76
2022/09/06 01:25:54;;;;;;;22.55;9.50;;;;;;;17.10;83.54;96515.91;5034986;28;20040;-76
2022/09/06 01:28:35;;;;;;;30.67;10.45;;;;;;;17.05;84.17;96510.69;5049727;28;20044;-76
2022/09/06 01:31:25;;;;;;;29.38;9.82;;;;;;;17.01;84.36;96518.03;5049721;28;20049;-76
2022/09/06 01:34:11;;;;;;;28.67;10.82;;;;;;;17.04;84.54;96520.09;5050180;28;20041;-77
2022/09/06 01:36:44;;;;;;;34.05;11.15;;;;;;;17.04;84.57;96526.41;5050054;28;20585;-76
2022/09/06 01:39:17;;;;;;;26.60;10.27;;;;;;;17.03;84.73;96518.50;5049612;28;20076;-76
2022/09/06 01:41:44;;;;;;;31.63;11.02;;;;;;;17.05;85.03;96516.19;5050034;28;20041;-76
2022/09/06 01:44:12;;;;;;;27.15;11.32;;;;;;;17.05;85.48;96516.19;5049454;28;20045;-76
2022/09/06 01:46:45;;;;;;;29.77;10.48;;;;;;;17.04;85.46;96517.34;5049664;28;20079;-76
2022/09/06 01:49:28;;;;;;;21.90;10.23;;;;;;;16.99;85.17;96515.66;5049457;28;20052;-76
2022/09/06 01:52:02;;;;;;;;;;;;;;;16.99;85.08;96523.91;5050362;28;20052;-76
2022/09/06 01:54:40;;;;;;;29.27;11.60;;;;;;;16.95;85.02;96518.31;5039942;28;19920;-76
2022/09/06 01:57:21;;;;;;;27.52;10.57;;;;;;;16.97;84.93;96519.94;5049438;28;20048;-76
2022/09/06 02:00:03;;;;;;;34.15;12.10;;;;;;;16.94;84.67;96516.72;5049566;28;20632;-77
2022/09/06 02:02:42;;;;;;;30.52;11.68;;;;;;;16.91;84.65;96522.13;5049403;28;20061;-76
2022/09/06 02:05:13;;;;;;;29.88;12.10;;;;;;;16.87;85.10;96522.06;5049341;28;20049;-77
2022/09/06 02:07:42;;;;;;;35.20;13.07;;;;;;;16.84;85.37;96522.75;5049733;28;20397;-76
2022/09/06 02:10:14;;;;;;;31.27;12.40;;;;;;;16.86;85.35;96525.97;5049216;28;20052;-76
2022/09/06 02:12:43;;;;;;;26.27;11.13;;;;;;;16.84;84.93;96528.25;5049048;28;20041;-76
2022/09/06 02:15:15;;;;;;;29.90;12.27;;;;;;;16.81;84.86;96522.66;5048864;28;20057;-77
2022/09/06 02:17:49;;;;;;;38.97;12.93;;;;;;;16.75;85.50;96519.38;5049399;28;20469;-76
2022/09/06 02:20:20;;;;;;;27.45;11.52;;;;;;;16.73;85.87;96516.19;5049241;28;20499;-76
2022/09/06 02:22:49;;;;;;;30.33;11.50;;;;;;;16.75;85.93;96511.13;5049761;28;20041;-76
2022/09/06 02:25:23;;;;;;;32.58;12.98;;;;;;;16.72;85.88;96511.84;5046840;28;20049;-76
2022/09/06 02:27:50;;;;;;;33.85;13.07;;;;;;;16.73;85.98;96516.19;5049420;28;20434;-76
2022/09/06 02:30:18;;;;;;;28.67;11.80;;;;;;;16.72;86.18;96514.59;5048828;28;20045;-76
2022/09/06 02:32:50;;;;;;;31.80;12.73;;;;;;;16.69;86.20;96515.25;5049579;28;20470;-76
2022/09/06 02:35:17;;;;;;;36.70;12.68;;;;;;;16.69;85.49;96516.06;5051678;28;20052;-76
2022/09/06 02:37:44;;;;;;;33.05;13.00;;;;;;;16.68;85.59;96508.97;5053360;28;20052;-76
2022/09/06 02:40:12;;;;;;;34.13;13.30;;;;;;;16.65;85.54;96514.34;5052643;28;20045;-76
2022/09/06 02:42:40;;;;;;;28.88;11.65;;;;;;;16.62;85.87;96509.59;5053403;28;20052;-76
2022/09/06 02:45:07;;;;;;;31.95;12.75;;;;;;;16.58;85.96;96503.19;5052792;28;20045;-76
2022/09/06 02:47:35;;;;;;;34.10;13.45;;;;;;;16.53;86.28;96503.44;5053369;28;20041;-76
2022/09/06 02:50:02;;;;;;;28.92;12.70;;;;;;;16.50;86.35;96513.22;5052707;28;20045;-75
2022/09/06 02:52:28;;;;;;;32.78;13.30;;;;;;;16.46;86.54;96517.00;5052954;28;20045;-76
2022/09/06 02:54:55;;;;;;;37.22;13.93;;;;;;;16.44;86.65;96504.44;5050932;28;20063;-76
2022/09/06 02:57:21;;;;;;;28.33;13.25;;;;;;;16.46;86.26;96511.50;5052433;28;20076;-77
2022/09/06 02:59:48;;;;;;;35.00;14.57;;;;;;;16.44;86.61;96503.59;5052984;28;20037;-77
2022/09/06 03:02:15;;;;;;;31.75;13.35;;;;;;;16.50;86.63;96512.41;5052447;28;20053;-76
2022/09/06 03:04:43;;;;;;;26.77;12.77;;;;;;;16.46;86.47;96506.03;5053051;28;20102;-76
2022/09/06 03:07:10;;;;;;;36.05;14.82;;;;;;;16.44;86.87;96498.94;5052335;28;20043;-76
2022/09/06 03:09:36;;;;;;;28.17;14.32;;;;;;;16.47;87.13;96507.59;5052874;28;20052;-76
2022/09/06 03:12:03;;;;;;;35.17;14.43;;;;;;;16.44;86.99;96504.44;5052000;28;20064;-75
2022/09/06 03:14:29;;;;;;;39.38;15.75;;;;;;;16.41;87.14;96510.63;5052852;28;20048;-76
2022/09/06 03:16:56;;;;;;;40.03;15.70;;;;;;;16.39;87.48;96501.94;5052490;28;20454;-76
2022/09/06 03:19:22;;;;;;;31.55;14.38;;;;;;;16.37;87.63;96509.72;5052063;28;20045;-76
2022/09/06 03:21:50;;;;;;;37.10;15.45;;;;;;;16.38;87.51;96505.81;5052573;28;20048;-76
2022/09/06 03:24:17;;;;;;;33.45;16.30;;;;;;;16.36;87.69;96510.88;5050093;28;20064;-76
2022/09/06 03:26:43;;;;;;;36.45;15.48;;;;;;;16.38;88.04;96508.56;5052582;28;20048;-76
2022/09/06 03:29:09;;;;;;;31.13;14.88;;;;;;;16.40;88.12;96508.22;5051744;28;20044;-75
2022/09/06 03:31:36;;;;;;;36.15;14.60;;;;;;;16.41;88.02;96515.31;5052574;28;20045;-75
2022/09/06 03:34:02;;;;;;;33.28;16.42;;;;;;;16.36;87.80;96510.88;5051793;28;20056;-74
2022/09/06 03:36:29;;;;;;;25.27;13.75;;;;;;;16.34;87.71;96507.69;5052198;28;20041;-75
2022/09/06 03:38:57;;;;;;;37.80;17.80;;;;;;;16.29;87.80;96504.41;5052204;28;20049;-75
2022/09/06 03:41:24;;;;;;;32.85;14.90;;;;;;;16.23;87.75;96509.31;5051871;28;20053;-75
2022/09/06 03:43:50;;;;;;;33.08;15.55;;;;;;;16.29;87.61;96502.44;5052185;28;20052;-75
2022/09/06 03:46:17;;;;;;;38.17;17.13;;;;;;;16.26;87.72;96514.13;5051544;28;20415;-75
2022/09/06 03:48:43;;;;;;;26.48;14.40;;;;;;;16.27;87.77;96507.47;5052137;28;20723;-75
2022/09/06 03:51:10;;;;;;;33.55;14.80;;;;;;;16.27;87.25;96499.22;5051440;28;20051;-75
2022/09/06 03:53:36;;;;;;;26.23;13.77;;;;;;;16.19;87.31;96500.19;5051381;28;20047;-74
2022/09/06 03:56:05;;;;;;;22.65;13.18;;;;;;;16.14;86.56;96498.50;5050256;28;20045;-74
2022/09/06 03:58:32;;;;;;;31.40;13.65;;;;;;;16.12;86.87;96494.50;5051965;28;20040;-75
2022/09/06 04:01:01;;;;;;;25.30;13.13;;;;;;;16.13;86.59;96490.59;5051999;28;20694;-75
2022/09/06 04:03:27;;;;;;;27.45;13.98;;;;;;;16.07;86.83;96495.53;5051382;28;20040;-75
2022/09/06 04:05:53;;;;;;;25.25;12.45;;;;;;;16.07;86.89;96492.78;5051903;28;20057;-75
2022/09/06 04:08:20;;;;;;;30.15;14.10;;;;;;;16.07;86.99;96492.00;5051308;28;20056;-75
2022/09/06 04:10:49;;;;;;;26.15;12.73;;;;;;;16.08;87.05;96496.38;5051785;28;20061;-75
2022/09/06 04:13:17;;;;;;;35.92;14.45;;;;;;;16.03;87.04;96491.13;5050939;28;20045;-75
2022/09/06 04:15:45;;;;;;;30.23;13.25;;;;;;;16.03;87.22;96488.38;5051640;28;20045;-75
2022/09/06 04:18:12;;;;;;;32.67;13.90;;;;;;;16.04;87.40;96499.00;5051137;28;20072;-75
2022/09/06 04:20:38;;;;;;;26.55;12.65;;;;;;;16.05;86.94;96492.34;5051593;28;20049;-74
2022/09/06 04:23:05;;;;;;;32.75;13.32;;;;;;;16.00;86.59;96489.06;5050420;28;20049;-75
2022/09/06 04:25:31;;;;;;;24.40;12.93;;;;;;;15.97;86.78;96500.72;5034499;28;20488;-75
2022/09/06 04:27:58;;;;;;;28.02;13.68;;;;;;;15.98;86.61;96496.88;5051504;28;20057;-75
2022/09/06 04:30:25;;;;;;;24.60;12.52;;;;;;;15.92;86.43;96493.53;5050953;28;20053;-75
2022/09/06 04:32:52;;;;;;;37.70;14.82;;;;;;;15.76;86.60;96496.22;5051349;28;20056;-75
2022/09/06 04:35:18;;;;;;;31.38;14.57;;;;;;;15.68;87.01;96499.91;5050675;28;20053;-75
2022/09/06 04:37:45;;;;;;;36.67;14.15;;;;;;;15.69;87.24;96503.47;5051162;28;20621;-75
2022/09/06 04:40:12;;;;;;;33.88;13.75;;;;;;;15.69;87.43;96500.72;5050700;28;20693;-75
2022/09/06 04:42:38;;;;;;;31.80;12.93;;;;;;;15.65;87.70;96498.66;5051302;28;20052;-75
2022/09/06 04:45:06;;;;;;;32.72;11.98;;;;;;;15.66;87.58;96502.22;5050783;28;20049;-75
2022/09/06 04:47:34;;;;;;;31.50;13.48;;;;;;;15.54;87.63;96511.22;5051123;28;20399;-75
2022/09/06 04:50:00;;;;;;;38.30;13.27;;;;;;;15.53;87.76;96503.34;5050911;28;20049;-75
2022/09/06 04:52:27;;;;;;;38.80;13.75;;;;;;;15.53;87.69;96503.34;5050850;28;20120;-75
2022/09/06 04:54:53;;;;;;;31.80;11.65;;;;;;;15.59;87.56;96504.72;5031529;28;20045;-75
2022/09/06 04:57:20;;;;;;;39.47;13.45;;;;;;;15.63;87.59;96508.41;5037757;28;20045;-74
2022/09/06 04:59:46;;;;;;;28.50;11.10;;;;;;;15.63;87.66;96508.41;5050835;28;20040;-75
2022/09/06 05:02:12;;;;;;;33.72;13.50;;;;;;;15.55;87.69;96523.00;5050455;28;20163;-75
2022/09/06 05:04:40;;;;;;;34.10;12.02;;;;;;;15.61;87.53;96525.19;5050824;28;20048;-75
2022/09/06 05:07:08;;;;;;;34.42;11.77;;;;;;;15.70;87.79;96527.81;5050311;28;20633;-74
2022/09/06 05:09:35;;;;;;;32.45;11.60;;;;;;;15.73;87.33;96532.63;5050637;28;20049;-74
2022/09/06 05:12:02;;;;;;;28.33;10.57;;;;;;;15.71;87.00;96532.16;5050042;28;20068;-73
2022/09/06 05:14:29;;;;;;;37.03;12.63;;;;;;;15.70;87.05;96529.75;5050223;28;20048;-75
2022/09/06 05:16:56;;;;;;;29.48;11.65;;;;;;;15.70;87.13;96522.31;5050583;28;20044;-75
2022/09/06 05:19:23;;;;;;;31.83;11.60;;;;;;;15.75;87.15;96519.34;5049729;28;20392;-75
2022/09/06 05:21:51;;;;;;;31.63;12.15;;;;;;;15.77;87.49;96519.00;5050398;28;20511;-75
2022/09/06 05:24:18;;;;;;;28.20;11.70;;;;;;;15.76;87.74;96529.16;5042365;28;20065;-75
2022/09/06 05:26:45;;;;;;;27.17;11.70;;;;;;;15.74;87.95;96531.47;5042955;28;20048;-75
2022/09/06 05:29:11;;;;;;;31.02;12.27;;;;;;;15.80;87.71;96541.06;5049588;28;20052;-75
2022/09/06 05:31:37;;;;;;;26.17;11.60;;;;;;;15.77;88.08;96530.78;5050397;28;20041;-75
2022/09/06 05:34:04;;;;;;;33.00;13.25;;;;;;;15.62;88.96;96535.03;5049813;28;20052;-75
2022/09/06 05:36:31;;;;;;;31.30;12.18;;;;;;;15.72;88.98;96531.03;5050093;28;20036;-75
2022/09/06 05:38:59;;;;;;;27.45;12.88;;;;;;;15.66;89.02;96529.69;5050061;28;20049;-75
2022/09/06 05:41:26;;;;;;;27.05;12.32;;;;;;;15.73;88.83;96538.13;5049806;28;20483;-75
2022/09/06 05:43:53;;;;;;;31.13;12.48;;;;;;;15.79;88.71;96528.47;5049973;28;20041;-75
2022/09/06 05:46:20;;;;;;;29.65;12.43;;;;;;;15.70;89.58;96530.56;5049677;28;20071;-75
2022/09/06 05:48:53;;;;;;;27.98;12.38;;;;;;;15.80;89.46;96534.78;5049989;28;20045;-75
2022/09/06 05:51:19;;;;;;;;;;;;;;;15.88;89.13;96531.09;5050086;28;20048;-75
2022/09/06 05:53:46;;;;;;;30.35;11.45;;;;;;;16.00;89.04;96538.50;5046626;28;20380;-75
2022/09/06 05:56:14;;;;;;;27.85;11.48;;;;;;;16.08;88.74;96551.31;5037590;28;20049;-75
2022/09/06 05:58:41;;;;;;;31.35;12.30;;;;;;;16.15;88.90;96551.50;5049653;28;20567;-74
2022/09/06 06:01:13;;;;;;;31.50;11.82;;;;;;;16.02;88.00;96553.47;5049325;28;20045;-75
2022/09/06 06:03:40;;;;;;;32.15;11.05;;;;;;;16.09;88.05;96555.66;5049745;28;20072;-75
2022/09/06 06:06:07;;;;;;;29.52;9.90;;;;;;;16.17;87.71;96560.19;5049354;28;20079;-74
2022/09/06 06:08:34;;;;;;;26.95;10.23;;;;;;;16.24;87.91;96557.66;5049356;28;20052;-75
2022/09/06 06:11:02;;;;;;;29.75;8.93;;;;;;;16.26;87.28;96563.59;5049361;28;20060;-76
2022/09/06 06:13:33;;;;;;;24.88;8.60;;;;;;;16.23;86.42;96580.75;5049210;28;20076;-76
2022/09/06 06:16:00;;;;;;;23.85;7.65;;;;;;;16.00;87.26;96583.25;5049395;28;20045;-76
2022/09/06 06:18:27;;;;;;;23.70;8.52;;;;;;;16.03;87.71;96579.81;5049367;28;20045;-76
2022/09/06 06:21:07;;;;;;;23.55;8.60;;;;;;;16.18;87.93;96592.00;5049699;28;20045;-76
2022/09/06 06:23:33;;;;;;;20.88;7.93;;;;;;;16.33;87.56;96601.44;5048056;28;20491;-76
2022/09/06 06:26:00;;;;;;;29.10;8.80;;;;;;;16.37;88.31;96597.66;5036194;28;20048;-76
2022/09/06 06:28:26;;;;;;;22.67;8.18;;;;;;;16.22;90.42;96603.88;5049568;28;20045;-76
2022/09/06 06:30:54;;;;;;;22.90;8.60;;;;;;;16.34;90.79;96603.03;5049694;28;20045;-75
2022/09/06 06:33:21;;;;;;;33.88;10.77;;;;;;;16.47;90.85;96609.31;5049214;28;20056;-75
2022/09/06 06:35:57;;;;;;;25.17;9.43;;;;;;;16.65;90.20;96605.09;5049629;28;20438;-76
2022/09/06 06:38:23;;;;;;;18.35;8.02;;;;;;;16.74;88.00;96600.28;5049355;28;20065;-75
2022/09/06 06:40:50;;;;;;;23.05;8.43;;;;;;;16.90;87.07;96597.53;5049748;28;20052;-76
2022/09/06 06:43:17;;;;;;;27.25;8.15;;;;;;;17.06;86.01;96600.31;5049261;28;20059;-76
2022/09/06 06:45:48;;;;;;;22.25;7.53;;;;;;;17.29;85.21;96606.03;5049528;28;20061;-76
2022/09/06 06:48:16;;;;;;;20.05;7.47;;;;;;;17.46;84.10;96598.19;5049074;28;20065;-76
2022/09/06 06:50:43;;;;;;;22.00;7.82;;;;;;;17.53;82.74;96591.25;5049295;28;20056;-76
2022/09/06 06:53:09;;;;;;;24.67;7.57;;;;;;;17.68;82.18;96604.19;5048962;28;20045;-76
2022/09/06 06:55:35;;;;;;;18.23;6.72;;;;;;;17.76;82.28;96606.00;5034511;28;20044;-76
2022/09/06 06:58:02;;;;;;;22.05;7.72;;;;;;;17.69;82.32;96616.81;5048881;28;20132;-76
2022/09/06 07:00:29;;;;;;;21.55;6.78;;;;;;;17.78;82.12;96611.94;5049041;28;20049;-74
2022/09/06 07:02:56;;;;;;;23.52;7.20;;;;;;;17.74;81.61;96611.06;5049308;28;20040;-75
2022/09/06 07:05:23;;;;;;;24.15;7.07;;;;;;;17.84;81.59;96613.25;5047186;28;20049;-76
2022/09/06 07:07:50;;;;;;;23.10;6.40;;;;;;;18.08;80.84;96616.94;5048171;28;20056;-75
2022/09/06 07:10:16;;;;;;;16.15;6.00;;;;;;;18.07;79.90;96621.66;5048926;28;20044;-74
2022/09/06 07:12:43;;;;;;;22.00;6.32;;;;;;;18.03;80.01;96620.00;5048864;28;20073;-74
2022/09/06 07:15:10;;;;;;;23.30;6.82;;;;;;;18.13;80.50;96622.97;5048548;28;20124;-75
2022/09/06 07:17:36;;;;;;;27.42;7.68;;;;;;;18.31;79.33;96625.31;5049193;28;20053;-76
2022/09/06 07:20:03;;;;;;;21.73;6.53;;;;;;;18.54;76.67;96611.63;5049229;28;20037;-78
2022/09/06 07:22:31;;;;;;;17.02;5.80;;;;;;;19.01;76.13;96625.97;5053026;28;20095;-77
2022/09/06 07:24:57;;;;;;;21.08;6.05;;;;;;;19.77;72.37;96617.00;5039939;28;20053;-76
2022/09/06 07:27:24;;;;;;;16.08;4.95;;;;;;;20.32;69.75;96609.13;5050297;28;20432;-79
2022/09/06 07:29:50;;;;;;;21.55;5.55;;;;;;;20.88;68.23;96608.25;5052381;28;20041;-75
2022/09/06 07:32:16;;;;;;;13.38;4.75;;;;;;;21.13;62.80;96614.03;5052299;28;20052;-78
2022/09/06 07:34:43;;;;;;;16.55;4.90;;;;;;;21.55;63.22;96613.66;5052749;28;20431;-77
2022/09/06 07:37:09;;;;;;;16.60;5.20;;;;;;;21.70;60.16;96613.78;5051952;28;20045;-75
2022/09/06 07:39:37;;;;;;;18.05;4.63;;;;;;;21.28;62.98;96609.44;5052610;28;20048;-75
2022/09/06 07:42:05;;;;;;;18.15;5.13;;;;;;;20.99;62.38;96603.63;5051923;28;20136;-75
2022/09/06 07:44:31;;;;;;;18.90;4.88;;;;;;;20.70;66.17;96604.47;5052260;28;20053;-75
2022/09/06 07:47:01;;;;;;;19.48;5.32;;;;;;;20.63;64.65;96604.41;5052264;28;20056;-75
2022/09/06 07:49:28;;;;;;;15.07;4.38;;;;;;;20.33;65.15;96611.50;5052217;28;20063;-74
2022/09/06 07:51:54;;;;;;;12.45;4.03;;;;;;;20.08;65.77;96607.59;5052105;28;20499;-74
2022/09/06 07:54:22;;;;;;;21.70;4.93;;;;;;;19.96;67.09;96597.56;5043779;28;20126;-75
2022/09/06 07:56:50;;;;;;;21.20;5.63;;;;;;;20.08;67.38;96594.56;5045111;28;20076;-75
2022/09/06 07:59:16;;;;;;;22.60;5.53;;;;;;;20.11;67.61;96587.50;5051656;28;20045;-75
2022/09/06 08:01:43;;;;;;;16.92;4.35;;;;;;;19.99;66.10;96580.25;5051948;28;20044;-75
2022/09/06 08:04:11;;;;;;;19.42;5.15;;;;;;;19.80;67.10;96569.31;5052231;28;20052;-80
2022/09/06 08:06:40;;;;;;;12.73;4.25;;;;;;;19.81;67.70;96577.22;5052076;28;20682;-76
2022/09/06 08:09:08;;;;;;;22.33;4.57;;;;;;;19.89;67.39;96577.31;5051588;28;20060;-76
2022/09/06 08:11:36;;;;;;;19.83;4.63;;;;;;;20.08;67.70;96591.81;5051769;28;20052;-74
2022/09/06 08:14:06;;;;;;;24.33;5.38;;;;;;;20.14;67.81;96595.03;5051194;28;20496;-76
2022/09/06 08:16:34;;;;;;;17.70;4.53;;;;;;;20.37;67.45;96594.97;5051837;28;20048;-74
2022/09/06 08:19:04;;;;;;;19.42;4.03;;;;;;;20.47;66.22;96599.06;5051698;28;20427;-78
2022/09/06 08:21:32;;;;;;;20.35;4.38;;;;;;;20.76;65.49;96591.88;5051524;28;20041;-78
2022/09/06 08:24:01;;;;;;;18.83;3.95;;;;;;;20.83;65.57;96589.22;5046844;28;20050;-77
2022/09/06 08:26:29;;;;;;;17.98;4.00;;;;;;;20.82;65.28;96598.66;5021732;28;20419;-76
2022/09/06 08:28:58;;;;;;;21.85;4.15;;;;;;;20.74;64.69;96591.47;5031651;28;20053;-75
2022/09/06 08:31:28;;;;;;;20.85;3.88;;;;;;;20.70;65.33;96585.09;5031339;28;20053;-77
2022/09/06 08:33:55;;;;;;;21.80;4.00;;;;;;;20.59;65.34;96583.00;5031612;28;20061;-75
2022/09/06 08:36:22;;;;;;;15.60;3.28;;;;;;;20.75;64.79;96576.47;5031021;28;20392;-75
2022/09/06 08:38:49;;;;;;;12.65;3.03;;;;;;;20.99;65.05;96575.94;5031583;28;20404;-75
2022/09/06 08:41:24;;;;;;;19.27;3.60;;;;;;;21.07;64.48;96583.13;5030960;28;20443;-75
2022/09/06 08:43:53;;;;;;;16.77;3.50;;;;;;;20.81;64.16;96574.94;5031520;28;20076;-75
2022/09/06 08:46:23;;;;;;;18.50;3.95;;;;;;;20.95;65.09;96579.84;5030907;28;20057;-76
2022/09/06 08:48:51;;;;;;;16.38;3.47;;;;;;;21.04;67.72;96583.09;5031252;28;20034;-76
2022/09/06 08:51:45;;;;;;;17.08;3.33;;;;;;;21.20;64.23;96589.19;5030725;28;20049;-74
2022/09/06 08:54:18;;;;;;;14.75;3.22;;;;;;;21.32;64.17;96593.66;5015449;28;20042;-75
2022/09/06 08:56:54;;;;;;;;;;;;;;;21.42;63.99;96587.44;5024172;28;20045;-76
2022/09/06 08:59:21;;;;;;;24.25;4.05;;;;;;;21.17;63.92;96581.63;5030623;28;19940;-74
2022/09/06 09:01:58;;;;;;;10.18;2.72;;;;;;;21.45;62.55;96581.09;5031280;28;20048;-77
2022/09/06 09:04:30;;;;;;;18.85;3.78;;;;;;;21.67;63.67;96575.75;5030635;28;20045;-76
2022/09/06 09:07:04;;;;;;;15.63;3.70;;;;;;;21.81;62.02;96571.09;5031195;28;20488;-76
2022/09/06 09:09:34;;;;;;;15.80;3.25;;;;;;;21.87;61.60;96571.50;5030683;28;20049;-76
2022/09/06 09:12:01;;;;;;;15.95;3.40;;;;;;;21.34;61.61;96575.47;5030740;28;20046;-77
2022/09/06 09:14:34;;;;;;;20.27;3.53;;;;;;;21.07;63.10;96571.25;5030661;28;20048;-76
2022/09/06 09:17:04;;;;;;;13.85;3.38;;;;;;;21.29;63.08;96566.69;5030778;28;20056;-76
2022/09/06 09:19:36;;;;;;;15.98;3.30;;;;;;;21.36;63.58;96556.53;5030605;28;20499;-76
2022/09/06 09:22:02;;;;;;;17.45;3.55;;;;;;;21.47;63.99;96555.81;5030378;28;20125;-75
2022/09/06 09:24:30;;;;;;;17.33;3.22;;;;;;;21.50;63.30;96558.59;5021631;28;20042;-76
2022/09/06 09:27:02;;;;;;;17.15;3.40;;;;;;;21.56;61.06;96557.06;5024631;28;20463;-75
2022/09/06 09:29:29;;;;;;;16.70;3.38;;;;;;;21.50;62.56;96550.28;5050259;28;20442;-75
2022/09/06 09:31:56;;;;;;;18.63;3.47;;;;;;;21.52;61.98;96541.59;5050415;28;20040;-75
2022/09/06 09:34:32;;;;;;;27.50;4.65;;;;;;;21.58;62.77;96538.06;5049757;28;20048;-75
2022/09/06 09:37:20;;;;;;;12.70;3.08;;;;;;;21.50;62.39;96525.34;5050340;28;20434;-75
2022/09/06 09:39:48;;;;;;;14.35;3.42;;;;;;;21.45;63.37;96520.16;5050144;28;20052;-76
2022/09/06 09:42:26;;;;;;;21.50;4.20;;;;;;;21.72;65.23;96515.22;5049805;28;20045;-76
2022/09/06 09:44:53;;;;;;;13.35;3.05;;;;;;;21.89;61.29;96510.94;5050108;28;20041;-76
2022/09/06 09:47:24;;;;;;;24.77;3.97;;;;;;;21.97;60.38;96518.09;5049713;28;20067;-76
2022/09/06 09:49:50;;;;;;;15.93;3.75;;;;;;;22.38;62.69;96523.47;5050088;28;20044;-75
2022/09/06 09:52:25;;;;;;;15.20;3.05;;;;;;;22.64;60.42;96517.59;5049642;28;20048;-76
2022/09/06 09:54:54;;;;;;;14.30;3.15;;;;;;;22.80;57.92;96519.22;5025492;28;20140;-76
2022/09/06 09:57:23;;;;;;;14.68;3.30;;;;;;;22.83;58.10;96515.66;5038113;28;21304;-76
2022/09/06 09:59:52;;;;;;;17.40;3.13;;;;;;;22.65;59.07;96521.97;5049941;28;20065;-75
2022/09/06 10:02:24;;;;;;;18.98;3.55;;;;;;;22.97;62.31;96524.06;5049391;28;20053;-76
2022/09/06 10:04:53;;;;;;;12.73;2.95;;;;;;;23.31;59.47;96518.13;5050029;28;20041;-76
2022/09/06 10:07:23;;;;;;;15.98;3.40;;;;;;;23.61;56.08;96512.94;5049454;28;20056;-76
2022/09/06 10:09:57;;;;;;;15.15;2.72;;;;;;;23.79;56.37;96518.47;5051157;28;20045;-80
2022/09/06 10:12:29;;;;;;;17.98;3.15;;;;;;;23.82;55.86;96514.91;5052066;28;20198;-80
2022/09/06 10:14:56;;;;;;;13.15;2.08;;;;;;;24.01;54.38;96508.09;5054787;28;20037;-80
2022/09/06 10:17:30;;;;;;;14.43;2.38;;;;;;;23.96;55.63;96508.50;5050373;28;20119;-80
2022/09/06 10:19:59;;;;;;;14.57;2.80;;;;;;;23.92;56.84;96496.63;5050606;28;20040;-80
2022/09/06 10:22:31;;;;;;;14.38;2.78;;;;;;;23.98;54.86;96503.34;5050534;28;20048;-80
2022/09/06 10:25:27;;;;;;;19.95;3.08;;;;;;;24.10;56.15;96502.91;5037387;28;20507;-80
2022/09/06 10:28:13;;;;;;;18.05;3.13;;;;;;;24.09;54.86;96495.75;5028578;28;20038;-80
2022/09/06 10:30:47;;;;;;;14.15;2.67;;;;;;;24.20;54.56;96504.06;5030839;28;20537;-79
2022/09/06 10:33:26;;;;;;;13.75;2.53;;;;;;;24.33;54.05;96502.44;5028582;28;20408;-81
2022/09/06 10:35:55;;;;;;;18.80;2.75;;;;;;;24.28;52.89;96500.06;5031017;28;20049;-80
2022/09/06 10:38:41;;;;;;;17.05;3.13;;;;;;;24.42;54.48;96493.66;5030057;28;20056;-80
2022/09/06 10:41:44;;;;;;;9.75;1.85;;;;;;;24.48;51.28;96489.25;5031135;28;20301;-80
2022/09/06 10:44:25;;;;;;;20.83;2.93;;;;;;;24.58;48.82;96490.38;5031641;28;20063;-81
2022/09/06 10:47:04;;;;;;;10.55;2.10;;;;;;;24.64;50.51;96495.16;5031898;28;20284;-80
2022/09/06 10:49:33;;;;;;;19.73;3.05;;;;;;;24.73;48.50;96495.47;5030193;28;20041;-81
2022/09/06 10:52:02;;;;;;;18.08;3.10;;;;;;;24.79;48.18;96489.47;5013430;28;20069;-81
2022/09/06 10:54:35;;;;;;;20.55;2.85;;;;;;;24.67;49.00;96488.75;5030033;28;20049;-81
2022/09/06 10:57:03;;;;;;;;;;;;;;;24.81;49.12;96492.66;5034291;28;20052;-78
2022/09/06 10:59:33;;;;;;;17.00;2.55;;;;;;;24.50;48.47;96478.53;5034872;28;20449;-80
2022/09/06 11:02:10;;;;;;;17.55;2.80;;;;;;;24.68;48.25;96476.41;5033751;28;20042;-81
2022/09/06 11:04:39;;;;;;;14.93;2.53;;;;;;;24.75;49.04;96472.00;5033759;28;20037;-79
2022/09/06 11:07:16;;;;;;;27.85;4.00;;;;;;;24.78;47.71;96482.31;5030986;28;20132;-76
2022/09/06 11:09:49;;;;;;;20.17;2.78;;;;;;;24.72;47.96;96473.59;5032172;28;20128;-75
2022/09/06 11:12:24;;;;;;;17.58;2.60;;;;;;;24.81;47.45;96470.38;5030746;28;20053;-74
2022/09/06 11:14:51;;;;;;;21.08;3.55;;;;;;;24.82;49.54;96464.38;5031997;28;20522;-75
2022/09/06 11:17:28;;;;;;;17.90;2.88;;;;;;;24.76;45.99;96468.81;5031769;28;20049;-76
2022/09/06 11:20:04;;;;;;;19.10;3.20;;;;;;;24.80;46.93;96463.22;5032144;28;20049;-75
2022/09/06 11:23:19;;;;;;;12.38;2.00;;;;;;;24.95;48.87;96461.91;5032480;28;20049;-75
2022/09/06 11:26:03;;;;;;;15.32;2.55;;;;;;;25.12;46.99;96471.38;5010496;28;20487;-76
2022/09/06 11:28:36;;;;;;;14.02;2.53;;;;;;;25.03;48.40;96465.44;5052410;28;20037;-75
2022/09/06 11:31:04;;;;;;;14.30;2.38;;;;;;;25.11;47.53;96455.84;5052383;28;20049;-74
2022/09/06 11:33:38;;;;;;;12.45;2.13;;;;;;;25.15;47.22;96457.38;5052583;28;20052;-76